sensor_id;sensor_type;location;lat;lon;timestamp;pressure;altitude;pressure_sealevel;temperature;humidity
29315;BME280;16320;53.954;9.506;2023-03-16T00:00:47;101716.78;;;1.74;100.00
29315;BME280;16320;53.954;9.506;2023-03-16T00:03:51;101725.41;;;1.73;100.00
29315;BME280;16320;53.954;9.506;2023-03-16T00:07:14;101728.03;;;1.76;100.00
29315;BME280;16320;53.954;9.506;2023-03-16T00:10:19;101725.41;;;1.73;100.00
29315;BME280;16320;53.954;9.506;2023-03-16T00:13:24;101739.22;;;1.73;100.00
29315;BME280;16320;53.954;9.506;2023-03-16T00:16:29;101729.72;;;1.74;100.00
29315;BME280;16320;53.954;9.506;2023-03-16T00:20:23;101725.41;;;1.73;100.00
29315;BME280;16320;53.954;9.506;2023-03-16T00:23:28;101728.03;;;1.76;100.00
29315;BME280;16320;53.954;9.506;2023-03-16T00:26:32;101726.28;;;1.75;100.00
29315;BME280;16320;53.954;9.506;2023-03-16T00:29:36;101731.44;;;1.72;100.00
29315;BME280;16320;53.954;9.506;2023-03-16T00:32:40;101734.91;;;1.74;100.00
29315;BME280;16320;53.954;9.506;2023-03-16T00:35:47;101735.78;;;1.71;100.00
29315;BME280;16320;53.954;9.506;2023-03-16T00:39:05;101737.50;;;1.71;100.00
29315;BME280;16320;53.954;9.506;2023-03-16T00:42:12;101738.38;;;1.70;100.00
29315;BME280;16320;53.954;9.506;2023-03-16T00:45:17;101731.44;;;1.64;100.00
29315;BME280;16320;53.954;9.506;2023-03-16T00:48:21;101737.47;;;1.58;100.00
29315;BME280;16320;53.954;9.506;2023-03-16T00:51:28;101737.47;;;1.57;100.00
29315;BME280;16320;53.954;9.506;2023-03-16T00:54:33;101741.81;;;1.56;100.00
29315;BME280;16320;53.954;9.506;2023-03-16T00:57:38;101739.22;;;1.55;100.00
29315;BME280;16320;53.954;9.506;2023-03-16T01:00:42;101737.50;;;1.60;100.00
29315;BME280;16320;53.954;9.506;2023-03-16T01:03:46;101723.69;;;1.58;100.00
29315;BME280;16320;53.954;9.506;2023-03-16T01:06:51;101729.72;;;1.55;100.00
29315;BME280;16320;53.954;9.506;2023-03-16T01:09:55;101730.56;;;1.57;100.00
29315;BME280;16320;53.954;9.506;2023-03-16T01:13:00;101722.78;;;1.54;100.00
29315;BME280;16320;53.954;9.506;2023-03-16T01:16:06;101721.94;;;1.57;100.00
29315;BME280;16320;53.954;9.506;2023-03-16T01:19:12;101722.78;;;1.57;100.00
29315;BME280;16320;53.954;9.506;2023-03-16T01:22:16;101710.72;;;1.56;100.00
29315;BME280;16320;53.954;9.506;2023-03-16T01:25:21;101716.75;;;1.55;100.00
29315;BME280;16320;53.954;9.506;2023-03-16T01:28:28;101712.44;;;1.56;100.00
29315;BME280;16320;53.954;9.506;2023-03-16T01:31:33;101720.19;;;1.56;100.00
29315;BME280;16320;53.954;9.506;2023-03-16T01:34:38;101716.75;;;1.57;100.00
29315;BME280;16320;53.954;9.506;2023-03-16T01:37:42;101709.00;;;1.55;100.00
29315;BME280;16320;53.954;9.506;2023-03-16T01:40:48;101709.84;;;1.56;100.00
29315;BME280;16320;53.954;9.506;2023-03-16T01:43:54;101708.16;;;1.56;100.00
29315;BME280;16320;53.954;9.506;2023-03-16T01:47:01;101705.56;;;1.58;100.00
29315;BME280;16320;53.954;9.506;2023-03-16T01:50:06;101684.84;;;1.56;100.00
29315;BME280;16320;53.954;9.506;2023-03-16T01:53:11;101693.44;;;1.55;100.00
29315;BME280;16320;53.954;9.506;2023-03-16T01:56:21;101686.53;;;1.54;100.00
29315;BME280;16320;53.954;9.506;2023-03-16T01:59:53;101686.56;;;1.51;100.00
29315;BME280;16320;53.954;9.506;2023-03-16T02:03:15;101686.53;;;1.53;100.00
29315;BME280;16320;53.954;9.506;2023-03-16T02:06:21;101679.66;;;1.53;100.00
29315;BME280;16320;53.954;9.506;2023-03-16T02:09:29;101676.19;;;1.51;100.00
29315;BME280;16320;53.954;9.506;2023-03-16T02:12:35;101668.41;;;1.54;100.00
29315;BME280;16320;53.954;9.506;2023-03-16T02:15:39;101664.13;;;1.53;100.00
29315;BME280;16320;53.954;9.506;2023-03-16T02:18:48;101669.31;;;1.59;100.00
29315;BME280;16320;53.954;9.506;2023-03-16T02:22:06;101669.31;;;1.58;100.00
29315;BME280;16320;53.954;9.506;2023-03-16T02:25:14;101665.81;;;1.57;100.00
29315;BME280;16320;53.954;9.506;2023-03-16T02:28:35;101671.00;;;1.54;100.00
29315;BME280;16320;53.954;9.506;2023-03-16T02:31:41;101664.09;;;1.50;100.00
29315;BME280;16320;53.954;9.506;2023-03-16T02:34:45;101675.31;;;1.52;100.00
29315;BME280;16320;53.954;9.506;2023-03-16T02:37:49;101673.59;;;1.56;100.00
29315;BME280;16320;53.954;9.506;2023-03-16T02:41:14;101675.31;;;1.54;100.00
29315;BME280;16320;53.954;9.506;2023-03-16T02:44:27;101668.44;;;1.50;100.00
29315;BME280;16320;53.954;9.506;2023-03-16T02:47:42;101677.91;;;1.49;100.00
29315;BME280;16320;53.954;9.506;2023-03-16T02:50:50;101665.84;;;1.48;100.00
29315;BME280;16320;53.954;9.506;2023-03-16T02:53:55;101661.53;;;1.52;100.00
29315;BME280;16320;53.954;9.506;2023-03-16T02:57:00;101661.50;;;1.45;100.00
29315;BME280;16320;53.954;9.506;2023-03-16T03:00:06;101655.47;;;1.48;100.00
29315;BME280;16320;53.954;9.506;2023-03-16T03:03:22;101652.88;;;1.40;100.00
29315;BME280;16320;53.954;9.506;2023-03-16T03:06:28;101655.47;;;1.39;100.00
29315;BME280;16320;53.954;9.506;2023-03-16T03:09:32;101652.03;;;1.40;100.00
29315;BME280;16320;53.954;9.506;2023-03-16T03:12:37;101641.66;;;1.37;100.00
29315;BME280;16320;53.954;9.506;2023-03-16T03:15:42;101644.25;;;1.40;100.00
29315;BME280;16320;53.954;9.506;2023-03-16T03:18:47;101647.69;;;1.42;100.00
29315;BME280;16320;53.954;9.506;2023-03-16T03:21:51;101645.97;;;1.39;100.00
29315;BME280;16320;53.954;9.506;2023-03-16T03:24:59;101647.69;;;1.40;100.00
29315;BME280;16320;53.954;9.506;2023-03-16T03:28:06;101638.19;;;1.41;100.00
29315;BME280;16320;53.954;9.506;2023-03-16T03:31:17;101641.66;;;1.40;100.00
29315;BME280;16320;53.954;9.506;2023-03-16T03:34:22;101654.59;;;1.37;100.00
29315;BME280;16320;53.954;9.506;2023-03-16T03:37:27;101656.31;;;1.42;100.00
29315;BME280;16320;53.954;9.506;2023-03-16T03:40:32;101656.31;;;1.38;100.00
29315;BME280;16320;53.954;9.506;2023-03-16T03:43:36;101657.19;;;1.34;100.00
29315;BME280;16320;53.954;9.506;2023-03-16T03:46:40;101664.94;;;1.34;100.00
29315;BME280;16320;53.954;9.506;2023-03-16T03:49:45;101657.19;;;1.38;100.00
29315;BME280;16320;53.954;9.506;2023-03-16T03:52:49;101658.88;;;1.33;100.00
29315;BME280;16320;53.954;9.506;2023-03-16T03:55:53;101661.50;;;1.30;100.00
29315;BME280;16320;53.954;9.506;2023-03-16T03:58:58;101648.53;;;1.25;100.00
29315;BME280;16320;53.954;9.506;2023-03-16T04:02:02;101650.25;;;1.23;100.00
29315;BME280;16320;53.954;9.506;2023-03-16T04:05:08;101643.38;;;1.22;100.00
29315;BME280;16320;53.954;9.506;2023-03-16T04:08:12;101639.03;;;1.18;100.00
29315;BME280;16320;53.954;9.506;2023-03-16T04:11:16;101629.53;;;1.14;100.00
29315;BME280;16320;53.954;9.506;2023-03-16T04:14:20;101621.78;;;1.11;100.00
29315;BME280;16320;53.954;9.506;2023-03-16T04:17:25;101626.09;;;1.11;100.00
29315;BME280;16320;53.954;9.506;2023-03-16T04:20:30;101621.78;;;1.11;100.00
29315;BME280;16320;53.954;9.506;2023-03-16T04:23:34;101615.75;;;1.09;100.00
29315;BME280;16320;53.954;9.506;2023-03-16T04:26:38;101619.19;;;1.08;100.00
29315;BME280;16320;53.954;9.506;2023-03-16T04:29:43;101611.44;;;1.14;100.00
29315;BME280;16320;53.954;9.506;2023-03-16T04:32:47;101619.19;;;1.14;100.00
29315;BME280;16320;53.954;9.506;2023-03-16T04:35:52;101607.97;;;1.18;100.00
29315;BME280;16320;53.954;9.506;2023-03-16T04:38:57;101600.19;;;1.12;100.00
29315;BME280;16320;53.954;9.506;2023-03-16T04:42:02;101593.31;;;1.13;100.00
29315;BME280;16320;53.954;9.506;2023-03-16T04:45:07;101593.31;;;1.14;100.00
29315;BME280;16320;53.954;9.506;2023-03-16T04:48:12;101584.66;;;1.12;100.00
29315;BME280;16320;53.954;9.506;2023-03-16T04:51:16;101579.50;;;1.15;100.00
29315;BME280;16320;53.954;9.506;2023-03-16T04:54:20;101576.06;;;1.10;100.00
29315;BME280;16320;53.954;9.506;2023-03-16T04:57:25;101572.63;;;1.11;100.00
29315;BME280;16320;53.954;9.506;2023-03-16T05:00:29;101581.22;;;1.13;100.00
29315;BME280;16320;53.954;9.506;2023-03-16T05:03:34;101574.31;;;1.12;100.00
29315;BME280;16320;53.954;9.506;2023-03-16T05:06:38;101567.44;;;1.14;100.00
29315;BME280;16320;53.954;9.506;2023-03-16T05:09:43;101584.69;;;1.18;100.00
29315;BME280;16320;53.954;9.506;2023-03-16T05:12:47;101593.34;;;1.20;100.00
29315;BME280;16320;53.954;9.506;2023-03-16T05:15:51;101587.28;;;1.23;100.00
29315;BME280;16320;53.954;9.506;2023-03-16T05:19:00;101584.69;;;1.27;100.00
29315;BME280;16320;53.954;9.506;2023-03-16T05:22:04;101585.53;;;1.25;100.00
29315;BME280;16320;53.954;9.506;2023-03-16T05:25:11;101589.88;;;1.29;100.00
29315;BME280;16320;53.954;9.506;2023-03-16T05:28:18;101589.88;;;1.32;100.00
29315;BME280;16320;53.954;9.506;2023-03-16T05:31:23;101582.97;;;1.39;100.00
29315;BME280;16320;53.954;9.506;2023-03-16T05:34:30;101570.88;;;1.35;100.00
29315;BME280;16320;53.954;9.506;2023-03-16T05:37:34;101551.91;;;1.33;100.00
29315;BME280;16320;53.954;9.506;2023-03-16T05:40:41;101557.97;;;1.27;100.00
29315;BME280;16320;53.954;9.506;2023-03-16T05:43:46;101551.06;;;1.29;100.00
29315;BME280;16320;53.954;9.506;2023-03-16T05:46:50;101543.28;;;1.34;100.00
29315;BME280;16320;53.954;9.506;2023-03-16T05:49:55;101545.00;;;1.35;100.00
29315;BME280;16320;53.954;9.506;2023-03-16T05:52:59;101553.66;;;1.40;100.00
29315;BME280;16320;53.954;9.506;2023-03-16T05:56:04;101561.38;;;1.43;100.00
29315;BME280;16320;53.954;9.506;2023-03-16T05:59:09;101550.19;;;1.47;100.00
29315;BME280;16320;53.954;9.506;2023-03-16T06:02:13;101551.91;;;1.48;100.00
29315;BME280;16320;53.954;9.506;2023-03-16T06:05:19;101551.91;;;1.45;100.00
29315;BME280;16320;53.954;9.506;2023-03-16T06:08:24;101552.78;;;1.52;100.00
29315;BME280;16320;53.954;9.506;2023-03-16T06:11:29;101544.16;;;1.50;100.00
29315;BME280;16320;53.954;9.506;2023-03-16T06:14:36;101544.13;;;1.59;100.00
29315;BME280;16320;53.954;9.506;2023-03-16T06:17:40;101547.56;;;1.62;100.00
29315;BME280;16320;53.954;9.506;2023-03-16T06:20:44;101551.88;;;1.63;100.00
29315;BME280;16320;53.954;9.506;2023-03-16T06:23:50;101557.06;;;1.70;100.00
29315;BME280;16320;53.954;9.506;2023-03-16T06:26:54;101558.78;;;1.74;100.00
29315;BME280;16320;53.954;9.506;2023-03-16T06:29:58;101557.06;;;1.79;100.00
29315;BME280;16320;53.954;9.506;2023-03-16T06:33:03;101556.16;;;1.81;100.00
29315;BME280;16320;53.954;9.506;2023-03-16T06:36:08;101557.91;;;1.92;100.00
29315;BME280;16320;53.954;9.506;2023-03-16T06:39:12;101554.41;;;1.99;100.00
29315;BME280;16320;53.954;9.506;2023-03-16T06:42:17;101548.38;;;2.01;100.00
29315;BME280;16320;53.954;9.506;2023-03-16T06:45:22;101548.34;;;2.05;100.00
29315;BME280;16320;53.954;9.506;2023-03-16T06:48:28;101555.25;;;2.09;100.00
29315;BME280;16320;53.954;9.506;2023-03-16T06:51:33;101555.22;;;2.12;100.00
29315;BME280;16320;53.954;9.506;2023-03-16T06:54:38;101550.91;;;2.12;100.00
29315;BME280;16320;53.954;9.506;2023-03-16T06:57:42;101548.31;;;2.08;100.00
29315;BME280;16320;53.954;9.506;2023-03-16T07:00:47;101560.41;;;2.16;100.00
29315;BME280;16320;53.954;9.506;2023-03-16T07:03:52;101560.41;;;2.18;100.00
29315;BME280;16320;53.954;9.506;2023-03-16T07:06:58;101561.25;;;2.26;100.00
29315;BME280;16320;53.954;9.506;2023-03-16T07:10:02;101570.72;;;2.27;100.00
29315;BME280;16320;53.954;9.506;2023-03-16T07:13:06;101572.44;;;2.34;100.00
29315;BME280;16320;53.954;9.506;2023-03-16T07:16:10;101568.97;;;2.34;100.00
29315;BME280;16320;53.954;9.506;2023-03-16T07:19:15;101579.31;;;2.35;100.00
29315;BME280;16320;53.954;9.506;2023-03-16T07:22:19;101576.72;;;2.38;100.00
29315;BME280;16320;53.954;9.506;2023-03-16T07:25:25;101582.75;;;2.44;100.00
29315;BME280;16320;53.954;9.506;2023-03-16T07:28:29;101574.94;;;2.50;100.00
29315;BME280;16320;53.954;9.506;2023-03-16T07:31:35;101579.25;;;2.54;100.00
29315;BME280;16320;53.954;9.506;2023-03-16T07:34:39;101569.72;;;2.64;100.00
29315;BME280;16320;53.954;9.506;2023-03-16T07:37:45;101573.16;;;2.67;100.00
29315;BME280;16320;53.954;9.506;2023-03-16T07:40:50;101568.78;;;2.71;100.00
29315;BME280;16320;53.954;9.506;2023-03-16T07:43:57;101564.41;;;2.79;100.00
29315;BME280;16320;53.954;9.506;2023-03-16T07:47:01;101563.53;;;2.85;100.00
29315;BME280;16320;53.954;9.506;2023-03-16T07:50:07;101566.03;;;2.96;100.00
29315;BME280;16320;53.954;9.506;2023-03-16T07:53:12;101564.28;;;3.02;100.00
29315;BME280;16320;53.954;9.506;2023-03-16T07:56:19;101572.91;;;3.07;100.00
29315;BME280;16320;53.954;9.506;2023-03-16T07:59:24;101572.81;;;3.15;100.00
29315;BME280;16320;53.954;9.506;2023-03-16T08:02:28;101571.91;;;3.27;100.00
29315;BME280;16320;53.954;9.506;2023-03-16T08:05:33;101566.59;;;3.36;100.00
29315;BME280;16320;53.954;9.506;2023-03-16T08:08:37;101575.19;;;3.44;100.00
29315;BME280;16320;53.954;9.506;2023-03-16T08:11:42;101567.34;;;3.54;100.00
29315;BME280;16320;53.954;9.506;2023-03-16T08:14:46;101561.13;;;3.69;100.00
29315;BME280;16320;53.954;9.506;2023-03-16T08:17:50;101559.47;;;3.63;100.00
29315;BME280;16320;53.954;9.506;2023-03-16T08:20:57;101561.09;;;3.73;100.00
29315;BME280;16320;53.954;9.506;2023-03-16T08:24:01;101547.19;;;3.80;100.00
29315;BME280;16320;53.954;9.506;2023-03-16T08:27:06;101548.81;;;3.88;100.00
29315;BME280;16320;53.954;9.506;2023-03-16T08:30:11;101547.03;;;3.93;100.00
29315;BME280;16320;53.954;9.506;2023-03-16T08:33:16;101533.00;;;4.06;100.00
29315;BME280;16320;53.954;9.506;2023-03-16T08:36:22;101536.28;;;4.22;100.00
29315;BME280;16320;53.954;9.506;2023-03-16T08:39:27;101523.97;;;4.36;100.00
29315;BME280;16320;53.954;9.506;2023-03-16T08:42:32;101529.97;;;4.42;100.00
29315;BME280;16320;53.954;9.506;2023-03-16T08:45:37;101526.44;;;4.49;100.00
29315;BME280;16320;53.954;9.506;2023-03-16T08:48:41;101535.78;;;4.61;100.00
29315;BME280;16320;53.954;9.506;2023-03-16T08:51:46;101531.25;;;4.75;100.00
29315;BME280;16320;53.954;9.506;2023-03-16T08:54:50;101521.63;;;4.80;100.00
29315;BME280;16320;53.954;9.506;2023-03-16T08:58:08;101531.97;;;4.86;100.00
29315;BME280;16320;53.954;9.506;2023-03-16T09:01:15;101529.31;;;4.89;100.00
29315;BME280;16320;53.954;9.506;2023-03-16T09:04:23;101528.28;;;5.00;100.00
29315;BME280;16320;53.954;9.506;2023-03-16T09:07:28;101530.81;;;5.04;100.00
29315;BME280;16320;53.954;9.506;2023-03-16T09:10:33;101524.44;;;5.22;100.00
29315;BME280;16320;53.954;9.506;2023-03-16T09:13:39;101537.34;;;5.31;100.00
29315;BME280;16320;53.954;9.506;2023-03-16T09:16:43;101525.09;;;5.37;100.00
29315;BME280;16320;53.954;9.506;2023-03-16T09:19:49;101517.03;;;5.49;100.00
29315;BME280;16320;53.954;9.506;2023-03-16T09:22:57;101524.72;;;5.57;100.00
29315;BME280;16320;53.954;9.506;2023-03-16T09:26:04;101510.84;;;5.56;100.00
29315;BME280;16320;53.954;9.506;2023-03-16T09:29:10;101503.78;;;5.61;100.00
29315;BME280;16320;53.954;9.506;2023-03-16T09:32:15;101497.34;;;5.81;100.00
29315;BME280;16320;53.954;9.506;2023-03-16T09:35:19;101493.91;;;5.79;100.00
29315;BME280;16320;53.954;9.506;2023-03-16T09:38:25;101494.56;;;5.90;100.00
29315;BME280;16320;53.954;9.506;2023-03-16T09:42:13;101503.00;;;6.04;100.00
29315;BME280;16320;53.954;9.506;2023-03-16T09:45:45;101497.56;;;6.15;100.00
29315;BME280;16320;53.954;9.506;2023-03-16T09:48:54;101486.09;;;6.24;100.00
29315;BME280;16320;53.954;9.506;2023-03-16T09:56:11;101488.13;;;6.10;100.00
29315;BME280;16320;53.954;9.506;2023-03-16T09:59:19;101479.19;;;6.20;100.00
29315;BME280;16320;53.954;9.506;2023-03-16T10:03:00;101486.06;;;6.26;100.00
29315;BME280;16320;53.954;9.506;2023-03-16T10:06:12;101479.75;;;6.34;100.00
29315;BME280;16320;53.954;9.506;2023-03-16T10:10:04;101477.03;;;6.40;100.00
29315;BME280;16320;53.954;9.506;2023-03-16T10:20:17;101484.97;;;6.73;100.00
29315;BME280;16320;53.954;9.506;2023-03-16T10:23:24;101476.06;;;6.81;100.00
29315;BME280;16320;53.954;9.506;2023-03-16T10:26:37;101475.19;;;6.82;100.00
29315;BME280;16320;53.954;9.506;2023-03-16T10:29:47;101467.28;;;6.85;100.00
29315;BME280;16320;53.954;9.506;2023-03-16T10:32:53;101471.81;;;6.78;100.00
29315;BME280;16320;53.954;9.506;2023-03-16T10:39:36;101460.13;;;6.93;100.00
29315;BME280;16320;53.954;9.506;2023-03-16T10:42:46;101460.13;;;6.93;100.00
29315;BME280;16320;53.954;9.506;2023-03-16T10:45:51;101451.22;;;7.00;100.00
29315;BME280;16320;53.954;9.506;2023-03-16T10:49:01;101454.53;;;7.08;100.00
29315;BME280;16320;53.954;9.506;2023-03-16T10:52:28;101460.69;;;7.06;100.00
29315;BME280;16320;53.954;9.506;2023-03-16T10:55:42;101459.63;;;7.13;100.00
29315;BME280;16320;53.954;9.506;2023-03-16T10:58:48;101437.56;;;7.25;100.00
29315;BME280;16320;53.954;9.506;2023-03-16T11:01:53;101445.97;;;7.36;100.00
29315;BME280;16320;53.954;9.506;2023-03-16T11:04:57;101429.06;;;7.49;100.00
29315;BME280;16320;53.954;9.506;2023-03-16T11:08:11;101431.22;;;7.65;100.00
29315;BME280;16320;53.954;9.506;2023-03-16T11:11:26;101420.44;;;7.77;100.00
29315;BME280;16320;53.954;9.506;2023-03-16T11:14:32;101417.34;;;7.93;100.00
29315;BME280;16320;53.954;9.506;2023-03-16T11:17:50;101413.31;;;7.82;100.00
29315;BME280;16320;53.954;9.506;2023-03-16T11:21:24;101413.94;;;7.91;100.00
29315;BME280;16320;53.954;9.506;2023-03-16T11:28:23;101410.34;;;7.95;100.00
29315;BME280;16320;53.954;9.506;2023-03-16T11:31:50;101394.56;;;7.98;100.00
29315;BME280;16320;53.954;9.506;2023-03-16T11:34:56;101388.03;;;8.11;100.00
29315;BME280;16320;53.954;9.506;2023-03-16T11:38:41;101390.34;;;8.20;100.00
29315;BME280;16320;53.954;9.506;2023-03-16T11:42:08;101402.53;;;8.21;100.00
29315;BME280;16320;53.954;9.506;2023-03-16T11:45:27;101384.00;;;8.29;100.00
29315;BME280;16320;53.954;9.506;2023-03-16T11:56:15;101362.94;;;8.04;100.00
29315;BME280;16320;53.954;9.506;2023-03-16T11:59:44;101366.63;;;7.98;100.00
29315;BME280;16320;53.954;9.506;2023-03-16T12:10:31;101365.03;;;8.49;100.00
29315;BME280;16320;53.954;9.506;2023-03-16T12:17:19;101337.50;;;8.64;100.00
29315;BME280;16320;53.954;9.506;2023-03-16T12:20:42;101331.75;;;8.79;100.00
29315;BME280;16320;53.954;9.506;2023-03-16T12:24:03;101319.97;;;8.91;100.00
29315;BME280;16320;53.954;9.506;2023-03-16T12:27:24;101317.63;;;9.09;100.00
29315;BME280;16320;53.954;9.506;2023-03-16T12:31:09;101313.97;;;9.13;100.00
29315;BME280;16320;53.954;9.506;2023-03-16T12:34:24;101310.31;;;9.17;100.00
29315;BME280;16320;53.954;9.506;2023-03-16T12:48:02;101289.44;;;9.39;100.00
29315;BME280;16320;53.954;9.506;2023-03-16T12:51:09;101283.66;;;9.53;99.90
29315;BME280;16320;53.954;9.506;2023-03-16T12:54:24;101277.00;;;9.66;100.00
29315;BME280;16320;53.954;9.506;2023-03-16T12:57:29;101272.38;;;9.73;96.94
29315;BME280;16320;53.954;9.506;2023-03-16T13:00:39;101274.56;;;9.84;98.82
29315;BME280;16320;53.954;9.506;2023-03-16T13:03:48;101269.56;;;9.78;88.59
29315;BME280;16320;53.954;9.506;2023-03-16T13:07:24;101252.78;;;9.60;85.71
29315;BME280;16320;53.954;9.506;2023-03-16T13:10:29;101246.63;;;9.61;97.36
29315;BME280;16320;53.954;9.506;2023-03-16T13:13:35;101247.72;;;9.55;95.16
29315;BME280;16320;53.954;9.506;2023-03-16T13:16:50;101233.94;;;9.50;96.58
29315;BME280;16320;53.954;9.506;2023-03-16T13:23:53;101246.00;;;9.32;93.08
29315;BME280;16320;53.954;9.506;2023-03-16T13:27:02;101237.16;;;9.34;89.73
29315;BME280;16320;53.954;9.506;2023-03-16T13:30:30;101241.09;;;9.23;85.03
29315;BME280;16320;53.954;9.506;2023-03-16T13:33:36;101244.69;;;9.20;95.63
29315;BME280;16320;53.954;9.506;2023-03-16T13:36:43;101235.28;;;9.14;86.57
29315;BME280;16320;53.954;9.506;2023-03-16T13:39:56;101243.09;;;8.92;84.87
29315;BME280;16320;53.954;9.506;2023-03-16T13:43:01;101242.06;;;8.96;76.82
29315;BME280;16320;53.954;9.506;2023-03-16T13:46:18;101222.34;;;8.86;74.60
29315;BME280;16320;53.954;9.506;2023-03-16T13:49:26;101222.91;;;8.71;81.40
29315;BME280;16320;53.954;9.506;2023-03-16T13:52:34;101228.38;;;8.65;90.37
29315;BME280;16320;53.954;9.506;2023-03-16T13:55:39;101211.91;;;8.61;90.79
29315;BME280;16320;53.954;9.506;2023-03-16T13:58:47;101209.56;;;8.53;88.20
29315;BME280;16320;53.954;9.506;2023-03-16T14:01:59;101215.03;;;8.47;80.68
29315;BME280;16320;53.954;9.506;2023-03-16T14:05:18;101207.41;;;8.39;80.23
29315;BME280;16320;53.954;9.506;2023-03-16T14:08:24;101210.41;;;8.29;100.00
29315;BME280;16320;53.954;9.506;2023-03-16T14:11:29;101214.03;;;8.24;94.56
29315;BME280;16320;53.954;9.506;2023-03-16T14:14:39;101205.16;;;8.29;87.83
29315;BME280;16320;53.954;9.506;2023-03-16T14:17:44;101194.75;;;8.27;96.80
29315;BME280;16320;53.954;9.506;2023-03-16T14:20:55;101195.53;;;8.29;85.38
29315;BME280;16320;53.954;9.506;2023-03-16T14:24:06;101185.44;;;8.18;93.72
29315;BME280;16320;53.954;9.506;2023-03-16T14:27:40;101182.19;;;8.12;94.23
29315;BME280;16320;53.954;9.506;2023-03-16T14:30:54;101164.41;;;8.21;95.59
29315;BME280;16320;53.954;9.506;2023-03-16T14:34:37;101163.44;;;8.24;91.78
29315;BME280;16320;53.954;9.506;2023-03-16T14:37:45;101154.50;;;8.30;83.96
29315;BME280;16320;53.954;9.506;2023-03-16T14:40:55;101156.97;;;8.34;97.05
29315;BME280;16320;53.954;9.506;2023-03-16T14:44:00;101157.19;;;8.28;99.23
29315;BME280;16320;53.954;9.506;2023-03-16T14:47:09;101152.00;;;8.27;94.13
29315;BME280;16320;53.954;9.506;2023-03-16T14:50:24;101146.09;;;8.21;90.36
29315;BME280;16320;53.954;9.506;2023-03-16T14:53:29;101138.13;;;8.24;95.07
29315;BME280;16320;53.954;9.506;2023-03-16T14:56:34;101143.56;;;8.18;96.72
29315;BME280;16320;53.954;9.506;2023-03-16T14:59:39;101137.44;;;8.19;83.74
29315;BME280;16320;53.954;9.506;2023-03-16T15:03:01;101120.13;;;8.15;82.30
29315;BME280;16320;53.954;9.506;2023-03-16T15:06:06;101130.63;;;8.14;89.19
29315;BME280;16320;53.954;9.506;2023-03-16T15:09:38;101129.78;;;8.13;85.66
29315;BME280;16320;53.954;9.506;2023-03-16T15:12:44;101127.28;;;8.10;95.65
29315;BME280;16320;53.954;9.506;2023-03-16T15:15:53;101132.53;;;8.10;97.94
29315;BME280;16320;53.954;9.506;2023-03-16T15:18:58;101126.28;;;8.14;90.80
29315;BME280;16320;53.954;9.506;2023-03-16T15:22:04;101125.69;;;8.06;93.78
29315;BME280;16320;53.954;9.506;2023-03-16T15:28:25;101120.47;;;8.06;92.43
29315;BME280;16320;53.954;9.506;2023-03-16T15:31:30;101124.63;;;8.12;93.44
29315;BME280;16320;53.954;9.506;2023-03-16T15:34:34;101125.34;;;8.15;92.28
29315;BME280;16320;53.954;9.506;2023-03-16T15:37:39;101119.81;;;8.24;87.05
29315;BME280;16320;53.954;9.506;2023-03-16T15:40:44;101117.28;;;8.21;96.22
29315;BME280;16320;53.954;9.506;2023-03-16T15:43:51;101115.78;;;8.16;92.73
29315;BME280;16320;53.954;9.506;2023-03-16T15:46:57;101119.34;;;8.13;92.49
29315;BME280;16320;53.954;9.506;2023-03-16T15:50:02;101110.69;;;8.11;100.00
29315;BME280;16320;53.954;9.506;2023-03-16T15:53:19;101101.81;;;8.15;100.00
29315;BME280;16320;53.954;9.506;2023-03-16T15:56:37;101108.88;;;8.13;92.65
29315;BME280;16320;53.954;9.506;2023-03-16T15:59:58;101108.28;;;8.05;100.00
29315;BME280;16320;53.954;9.506;2023-03-16T16:03:05;101096.09;;;8.04;95.11
29315;BME280;16320;53.954;9.506;2023-03-16T16:06:10;101105.09;;;7.97;100.00
29315;BME280;16320;53.954;9.506;2023-03-16T16:09:16;101099.91;;;7.95;100.00
29315;BME280;16320;53.954;9.506;2023-03-16T16:12:20;101094.94;;;7.87;99.93
29315;BME280;16320;53.954;9.506;2023-03-16T16:15:34;101094.81;;;7.91;96.38
29315;BME280;16320;53.954;9.506;2023-03-16T16:18:39;101086.81;;;7.95;95.72
29315;BME280;16320;53.954;9.506;2023-03-16T16:21:44;101093.00;;;7.93;96.09
29315;BME280;16320;53.954;9.506;2023-03-16T16:24:50;101081.66;;;7.94;91.43
29315;BME280;16320;53.954;9.506;2023-03-16T16:27:55;101083.81;;;7.81;100.00
29315;BME280;16320;53.954;9.506;2023-03-16T16:31:00;101088.13;;;7.83;96.58
29315;BME280;16320;53.954;9.506;2023-03-16T16:34:18;101083.19;;;7.74;100.00
29315;BME280;16320;53.954;9.506;2023-03-16T16:37:25;101082.06;;;7.81;100.00
29315;BME280;16320;53.954;9.506;2023-03-16T16:40:35;101077.00;;;7.77;100.00
29315;BME280;16320;53.954;9.506;2023-03-16T16:43:45;101057.09;;;7.73;100.00
29315;BME280;16320;53.954;9.506;2023-03-16T16:46:51;101066.41;;;7.80;88.45
29315;BME280;16320;53.954;9.506;2023-03-16T16:49:56;101057.41;;;7.88;83.85
29315;BME280;16320;53.954;9.506;2023-03-16T16:53:01;101056.69;;;7.85;89.60
29315;BME280;16320;53.954;9.506;2023-03-16T16:56:15;101068.25;;;7.78;97.40
29315;BME280;16320;53.954;9.506;2023-03-16T16:59:31;101062.41;;;7.69;94.21
29315;BME280;16320;53.954;9.506;2023-03-16T17:02:45;101081.81;;;7.64;100.00
29315;BME280;16320;53.954;9.506;2023-03-16T17:05:52;101077.66;;;7.57;100.00
29315;BME280;16320;53.954;9.506;2023-03-16T17:08:57;101074.16;;;7.58;100.00
29315;BME280;16320;53.954;9.506;2023-03-16T17:12:01;101082.50;;;7.69;86.59
29315;BME280;16320;53.954;9.506;2023-03-16T17:15:18;101076.34;;;7.70;91.56
29315;BME280;16320;53.954;9.506;2023-03-16T17:18:24;101071.44;;;7.61;93.99
29315;BME280;16320;53.954;9.506;2023-03-16T17:21:30;101058.53;;;7.56;93.46
29315;BME280;16320;53.954;9.506;2023-03-16T17:24:35;101058.38;;;7.61;87.35